sensor_id;sensor_type;location;lat;lon;timestamp;pressure;altitude;pressure_sealevel;temperature;humidity
35694;BME280;21812;55.536;37.664;2023-05-19T00:01:09;100342.47;;;19.04;59.97
35694;BME280;21812;55.536;37.664;2023-05-19T00:03:35;100345.47;;;18.96;60.20
35694;BME280;21812;55.536;37.664;2023-05-19T00:06:06;100348.78;;;18.98;60.25
35694;BME280;21812;55.536;37.664;2023-05-19T00:08:36;100344.25;;;19.10;59.77
35694;BME280;21812;55.536;37.664;2023-05-19T00:11:03;100342.72;;;19.14;59.67
35694;BME280;21812;55.536;37.664;2023-05-19T00:13:29;100344.28;;;19.34;59.56
35694;BME280;21812;55.536;37.664;2023-05-19T00:15:55;100346.66;;;19.42;58.70
35694;BME280;21812;55.536;37.664;2023-05-19T00:18:20;100342.78;;;19.50;58.97
35694;BME280;21812;55.536;37.664;2023-05-19T00:20:48;100351.59;;;19.45;59.01
35694;BME280;21812;55.536;37.664;2023-05-19T00:23:13;100353.72;;;19.43;58.95
35694;BME280;21812;55.536;37.664;2023-05-19T00:25:39;100352.88;;;19.31;58.42
35694;BME280;21812;55.536;37.664;2023-05-19T00:28:05;100358.09;;;19.44;59.24
35694;BME280;21812;55.536;37.664;2023-05-19T00:30:31;100363.28;;;19.58;58.69
35694;BME280;21812;55.536;37.664;2023-05-19T00:32:57;100368.47;;;19.59;58.95
35694;BME280;21812;55.536;37.664;2023-05-19T00:35:23;100365.19;;;19.69;57.94
35694;BME280;21812;55.536;37.664;2023-05-19T00:37:49;100366.16;;;19.86;58.08
35694;BME280;21812;55.536;37.664;2023-05-19T00:40:15;100373.91;;;19.71;57.05
35694;BME280;21812;55.536;37.664;2023-05-19T00:42:41;100372.16;;;19.88;58.26
35694;BME280;21812;55.536;37.664;2023-05-19T00:45:07;100362.88;;;19.96;57.41
35694;BME280;21812;55.536;37.664;2023-05-19T00:47:33;100366.88;;;19.94;56.55
35694;BME280;21812;55.536;37.664;2023-05-19T00:49:59;100368.66;;;19.88;56.43
35694;BME280;21812;55.536;37.664;2023-05-19T00:52:25;100373.78;;;19.66;57.31
35694;BME280;21812;55.536;37.664;2023-05-19T00:54:52;100375.75;;;19.59;58.02
35694;BME280;21812;55.536;37.664;2023-05-19T00:57:19;100369.16;;;19.66;58.02
35694;BME280;21812;55.536;37.664;2023-05-19T00:59:48;100363.16;;;19.64;58.39
35694;BME280;21812;55.536;37.664;2023-05-19T01:02:14;100366.72;;;19.65;58.03
35694;BME280;21812;55.536;37.664;2023-05-19T01:04:40;100368.34;;;19.66;57.98
35694;BME280;21812;55.536;37.664;2023-05-19T01:07:08;100380.06;;;19.78;57.80
35694;BME280;21812;55.536;37.664;2023-05-19T01:09:35;100382.06;;;19.83;57.80
35694;BME280;21812;55.536;37.664;2023-05-19T01:12:02;100380.06;;;20.02;57.39
35694;BME280;21812;55.536;37.664;2023-05-19T01:14:28;100377.22;;;19.73;57.00
35694;BME280;21812;55.536;37.664;2023-05-19T01:17:06;100379.41;;;19.64;57.65
35694;BME280;21812;55.536;37.664;2023-05-19T01:19:55;100387.28;;;19.42;58.35
35694;BME280;21812;55.536;37.664;2023-05-19T01:30:36;100386.84;;;19.15;59.61
35694;BME280;21812;55.536;37.664;2023-05-19T01:33:06;100366.84;;;19.16;59.35
35694;BME280;21812;55.536;37.664;2023-05-19T01:35:35;100391.78;;;19.48;58.06
35694;BME280;21812;55.536;37.664;2023-05-19T01:38:02;100388.50;;;19.58;58.29
35694;BME280;21812;55.536;37.664;2023-05-19T01:40:29;100401.09;;;19.64;58.27
35694;BME280;21812;55.536;37.664;2023-05-19T01:42:59;100375.16;;;19.45;58.54
35694;BME280;21812;55.536;37.664;2023-05-19T01:45:27;100399.19;;;19.53;58.00
35694;BME280;21812;55.536;37.664;2023-05-19T01:47:56;100401.13;;;19.76;58.15
35694;BME280;21812;55.536;37.664;2023-05-19T01:50:22;100411.88;;;19.83;56.61
35694;BME280;21812;55.536;37.664;2023-05-19T01:52:49;100394.75;;;19.70;56.85
35694;BME280;21812;55.536;37.664;2023-05-19T01:55:15;100404.50;;;19.60;57.33
35694;BME280;21812;55.536;37.664;2023-05-19T02:08:41;100409.66;;;19.49;56.75
35694;BME280;21812;55.536;37.664;2023-05-19T02:11:22;100375.94;;;19.22;56.51
35694;BME280;21812;55.536;37.664;2023-05-19T02:13:53;100414.56;;;19.29;57.73
35694;BME280;21812;55.536;37.664;2023-05-19T02:16:25;100391.91;;;18.81;58.84
35694;BME280;21812;55.536;37.664;2023-05-19T02:18:52;100413.56;;;19.11;59.18
35694;BME280;21812;55.536;37.664;2023-05-19T02:21:18;100407.97;;;19.25;58.48
35694;BME280;21812;55.536;37.664;2023-05-19T02:23:44;100414.56;;;19.29;57.53
35694;BME280;21812;55.536;37.664;2023-05-19T02:26:10;100419.13;;;19.28;58.46
35694;BME280;21812;55.536;37.664;2023-05-19T02:28:36;100418.81;;;19.25;58.02
35694;BME280;21812;55.536;37.664;2023-05-19T02:31:02;100431.41;;;19.01;58.06
35694;BME280;21812;55.536;37.664;2023-05-19T02:33:29;100434.34;;;18.81;58.60
35694;BME280;21812;55.536;37.664;2023-05-19T02:35:56;100436.91;;;18.75;58.62
35694;BME280;21812;55.536;37.664;2023-05-19T02:38:22;100435.66;;;18.71;58.26
35694;BME280;21812;55.536;37.664;2023-05-19T02:40:50;100413.69;;;18.68;59.48
35694;BME280;21812;55.536;37.664;2023-05-19T02:43:17;100440.78;;;18.98;59.10
35694;BME280;21812;55.536;37.664;2023-05-19T02:45:44;100449.72;;;18.62;56.29
35694;BME280;21812;55.536;37.664;2023-05-19T02:48:10;100452.34;;;18.31;57.84
35694;BME280;21812;55.536;37.664;2023-05-19T02:50:36;100458.72;;;18.19;59.78
35694;BME280;21812;55.536;37.664;2023-05-19T02:53:03;100432.31;;;17.95;60.28
35694;BME280;21812;55.536;37.664;2023-05-19T02:55:28;100451.84;;;18.16;60.24
35694;BME280;21812;55.536;37.664;2023-05-19T02:57:54;100456.75;;;18.07;57.29
35694;BME280;21812;55.536;37.664;2023-05-19T03:00:20;100460.28;;;17.76;57.56
35694;BME280;21812;55.536;37.664;2023-05-19T03:02:46;100466.06;;;17.86;57.36
35694;BME280;21812;55.536;37.664;2023-05-19T03:05:12;100469.66;;;18.05;57.96
35694;BME280;21812;55.536;37.664;2023-05-19T03:07:38;100468.25;;;18.21;58.52
35694;BME280;21812;55.536;37.664;2023-05-19T03:10:05;100474.91;;;18.44;58.48
35694;BME280;21812;55.536;37.664;2023-05-19T03:12:33;100482.19;;;18.43;56.35
35694;BME280;21812;55.536;37.664;2023-05-19T03:15:00;100481.00;;;18.39;57.44
35694;BME280;21812;55.536;37.664;2023-05-19T03:17:26;100482.88;;;18.57;56.70
35694;BME280;21812;55.536;37.664;2023-05-19T03:19:58;100483.44;;;18.41;53.76
35694;BME280;21812;55.536;37.664;2023-05-19T03:22:23;100494.63;;;18.44;56.48
35694;BME280;21812;55.536;37.664;2023-05-19T03:24:49;100487.78;;;18.23;52.95
35694;BME280;21812;55.536;37.664;2023-05-19T03:27:16;100493.53;;;18.33;55.45
35694;BME280;21812;55.536;37.664;2023-05-19T03:29:42;100495.84;;;18.48;51.94
35694;BME280;21812;55.536;37.664;2023-05-19T03:32:07;100503.22;;;18.60;54.24
35694;BME280;21812;55.536;37.664;2023-05-19T03:34:34;100495.59;;;18.93;53.58
35694;BME280;21812;55.536;37.664;2023-05-19T03:37:00;100494.84;;;18.68;53.10
35694;BME280;21812;55.536;37.664;2023-05-19T03:39:26;100499.53;;;18.54;51.35
35694;BME280;21812;55.536;37.664;2023-05-19T03:41:52;100504.25;;;18.84;58.06
35694;BME280;21812;55.536;37.664;2023-05-19T03:44:18;100508.75;;;18.90;56.18
35694;BME280;21812;55.536;37.664;2023-05-19T03:46:43;100505.28;;;19.01;55.86
35694;BME280;21812;55.536;37.664;2023-05-19T03:49:41;100507.75;;;18.66;53.30
35694;BME280;21812;55.536;37.664;2023-05-19T03:52:16;100515.91;;;18.15;50.21
35694;BME280;21812;55.536;37.664;2023-05-19T03:54:52;100497.75;;;18.23;54.33
35694;BME280;21812;55.536;37.664;2023-05-19T03:57:18;100519.44;;;18.41;55.94
35694;BME280;21812;55.536;37.664;2023-05-19T03:59:46;100516.91;;;18.65;54.57
35694;BME280;21812;55.536;37.664;2023-05-19T04:02:12;100516.44;;;18.93;54.98
35694;BME280;21812;55.536;37.664;2023-05-19T04:04:37;100507.25;;;18.75;53.96
35694;BME280;21812;55.536;37.664;2023-05-19T04:07:03;100524.38;;;18.44;50.26
35694;BME280;21812;55.536;37.664;2023-05-19T04:09:29;100526.69;;;18.41;55.32
35694;BME280;21812;55.536;37.664;2023-05-19T04:11:56;100523.38;;;18.20;54.48
35694;BME280;21812;55.536;37.664;2023-05-19T04:14:23;100525.50;;;17.86;50.57
35694;BME280;21812;55.536;37.664;2023-05-19T04:16:49;100525.28;;;17.88;52.05
35694;BME280;21812;55.536;37.664;2023-05-19T04:19:15;100520.59;;;18.02;50.54
35694;BME280;21812;55.536;37.664;2023-05-19T04:21:41;100524.41;;;17.94;53.00
35694;BME280;21812;55.536;37.664;2023-05-19T04:24:06;100530.09;;;18.11;53.12
35694;BME280;21812;55.536;37.664;2023-05-19T04:26:33;100523.81;;;17.85;53.28
35694;BME280;21812;55.536;37.664;2023-05-19T04:29:00;100523.63;;;17.87;50.83
35694;BME280;21812;55.536;37.664;2023-05-19T04:31:29;100525.13;;;18.08;54.86
35694;BME280;21812;55.536;37.664;2023-05-19T04:33:55;100522.47;;;18.01;53.04
35694;BME280;21812;55.536;37.664;2023-05-19T04:36:21;100517.53;;;17.91;50.73
35694;BME280;21812;55.536;37.664;2023-05-19T04:38:50;100531.25;;;17.58;50.23
35694;BME280;21812;55.536;37.664;2023-05-19T04:41:20;100528.63;;;17.45;52.01
35694;BME280;21812;55.536;37.664;2023-05-19T04:43:46;100531.66;;;17.16;51.25
35694;BME280;21812;55.536;37.664;2023-05-19T04:46:13;100523.19;;;16.99;52.07
35694;BME280;21812;55.536;37.664;2023-05-19T04:48:39;100530.41;;;17.12;56.56
35694;BME280;21812;55.536;37.664;2023-05-19T04:51:05;100521.16;;;17.40;55.40
35694;BME280;21812;55.536;37.664;2023-05-19T04:53:32;100519.03;;;17.49;54.76
35694;BME280;21812;55.536;37.664;2023-05-19T04:55:58;100529.56;;;17.64;54.77
35694;BME280;21812;55.536;37.664;2023-05-19T04:58:26;100535.16;;;17.62;56.89
35694;BME280;21812;55.536;37.664;2023-05-19T05:00:53;100522.41;;;17.44;53.09
35694;BME280;21812;55.536;37.664;2023-05-19T05:03:23;100546.44;;;17.52;59.64
35694;BME280;21812;55.536;37.664;2023-05-19T05:05:50;100541.09;;;17.84;54.86
35694;BME280;21812;55.536;37.664;2023-05-19T05:08:17;100541.63;;;18.00;54.76
35694;BME280;21812;55.536;37.664;2023-05-19T05:10:49;100546.44;;;17.46;51.64
35694;BME280;21812;55.536;37.664;2023-05-19T05:13:19;100550.47;;;17.75;59.00
35694;BME280;21812;55.536;37.664;2023-05-19T05:15:46;100548.13;;;17.47;53.74
35694;BME280;21812;55.536;37.664;2023-05-19T05:18:13;100558.78;;;17.28;53.82
35694;BME280;21812;55.536;37.664;2023-05-19T05:20:43;100522.91;;;17.21;60.31
35694;BME280;21812;55.536;37.664;2023-05-19T05:23:11;100556.56;;;17.57;59.38
35694;BME280;21812;55.536;37.664;2023-05-19T05:25:43;100550.69;;;17.73;58.85
35694;BME280;21812;55.536;37.664;2023-05-19T05:28:10;100556.00;;;17.93;58.96
35694;BME280;21812;55.536;37.664;2023-05-19T05:30:37;100563.13;;;18.38;58.51
35694;BME280;21812;55.536;37.664;2023-05-19T05:33:06;100558.16;;;18.10;54.75
35694;BME280;21812;55.536;37.664;2023-05-19T05:35:35;100563.53;;;18.16;58.33
35694;BME280;21812;55.536;37.664;2023-05-19T05:38:02;100563.38;;;18.05;53.31
35694;BME280;21812;55.536;37.664;2023-05-19T05:40:28;100574.34;;;17.85;58.40
35694;BME280;21812;55.536;37.664;2023-05-19T05:42:55;100567.38;;;17.05;52.60
35694;BME280;21812;55.536;37.664;2023-05-19T05:45:22;100583.19;;;16.35;54.66
35694;BME280;21812;55.536;37.664;2023-05-19T05:47:49;100601.41;;;15.86;56.94
35694;BME280;21812;55.536;37.664;2023-05-19T05:50:15;100596.03;;;15.44;59.01
35694;BME280;21812;55.536;37.664;2023-05-19T05:52:45;100566.63;;;15.01;60.58
35694;BME280;21812;55.536;37.664;2023-05-19T05:55:14;100599.78;;;15.09;61.31
35694;BME280;21812;55.536;37.664;2023-05-19T05:57:42;100600.59;;;15.02;62.36
35694;BME280;21812;55.536;37.664;2023-05-19T06:00:09;100604.22;;;14.88;61.96
35694;BME280;21812;55.536;37.664;2023-05-19T06:02:43;100603.22;;;14.68;62.11
35694;BME280;21812;55.536;37.664;2023-05-19T06:05:11;100608.75;;;14.59;63.44
35694;BME280;21812;55.536;37.664;2023-05-19T06:07:38;100606.38;;;14.50;63.88
35694;BME280;21812;55.536;37.664;2023-05-19T06:10:05;100607.97;;;14.44;64.97
35694;BME280;21812;55.536;37.664;2023-05-19T06:12:32;100599.66;;;14.39;65.10
35694;BME280;21812;55.536;37.664;2023-05-19T06:15:00;100615.56;;;14.34;64.35
35694;BME280;21812;55.536;37.664;2023-05-19T06:17:46;100604.34;;;14.30;65.25
35694;BME280;21812;55.536;37.664;2023-05-19T06:20:12;100610.25;;;14.19;65.10
35694;BME280;21812;55.536;37.664;2023-05-19T06:22:38;100606.94;;;14.17;65.86
35694;BME280;21812;55.536;37.664;2023-05-19T06:25:05;100611.44;;;14.16;66.11
35694;BME280;21812;55.536;37.664;2023-05-19T06:27:32;100608.72;;;14.10;65.23
35694;BME280;21812;55.536;37.664;2023-05-19T06:29:58;100609.72;;;14.08;66.12
35694;BME280;21812;55.536;37.664;2023-05-19T06:32:30;100609.06;;;14.06;66.42
35694;BME280;21812;55.536;37.664;2023-05-19T06:34:57;100611.75;;;14.06;66.58
35694;BME280;21812;55.536;37.664;2023-05-19T06:37:24;100615.31;;;14.07;66.86
35694;BME280;21812;55.536;37.664;2023-05-19T06:39:53;100619.06;;;14.13;67.62
35694;BME280;21812;55.536;37.664;2023-05-19T06:42:19;100615.94;;;14.09;68.31
35694;BME280;21812;55.536;37.664;2023-05-19T06:45:07;100623.78;;;14.11;69.06
35694;BME280;21812;55.536;37.664;2023-05-19T06:47:33;100622.13;;;14.10;68.63
35694;BME280;21812;55.536;37.664;2023-05-19T06:49:59;100628.13;;;14.12;68.42
35694;BME280;21812;55.536;37.664;2023-05-19T06:52:32;100627.88;;;14.06;68.58
35694;BME280;21812;55.536;37.664;2023-05-19T06:54:59;100631.09;;;14.17;68.80
35694;BME280;21812;55.536;37.664;2023-05-19T06:57:25;100629.41;;;14.16;67.91
35694;BME280;21812;55.536;37.664;2023-05-19T06:59:52;100622.31;;;14.08;68.16
35694;BME280;21812;55.536;37.664;2023-05-19T07:02:17;100628.41;;;14.17;68.85
35694;BME280;21812;55.536;37.664;2023-05-19T07:04:43;100627.63;;;14.23;68.68
35694;BME280;21812;55.536;37.664;2023-05-19T07:07:11;100626.03;;;14.28;68.65
35694;BME280;21812;55.536;37.664;2023-05-19T07:09:36;100633.91;;;14.30;69.00
35694;BME280;21812;55.536;37.664;2023-05-19T07:12:02;100634.91;;;14.29;69.05
35694;BME280;21812;55.536;37.664;2023-05-19T07:14:29;100638.44;;;14.30;68.43
35694;BME280;21812;55.536;37.664;2023-05-19T07:16:55;100635.00;;;14.36;68.57
35694;BME280;21812;55.536;37.664;2023-05-19T07:19:21;100633.19;;;14.43;67.70
35694;BME280;21812;55.536;37.664;2023-05-19T07:21:48;100632.22;;;14.51;68.00
35694;BME280;21812;55.536;37.664;2023-05-19T07:24:14;100636.19;;;14.55;67.81
35694;BME280;21812;55.536;37.664;2023-05-19T07:26:40;100637.69;;;14.57;67.92
35694;BME280;21812;55.536;37.664;2023-05-19T07:29:07;100635.00;;;14.57;66.86
35694;BME280;21812;55.536;37.664;2023-05-19T07:31:33;100636.38;;;14.53;66.65
35694;BME280;21812;55.536;37.664;2023-05-19T07:33:59;100633.28;;;14.56;67.88
35694;BME280;21812;55.536;37.664;2023-05-19T07:36:25;100636.91;;;14.63;67.15
35694;BME280;21812;55.536;37.664;2023-05-19T07:38:51;100638.00;;;14.69;66.18
35694;BME280;21812;55.536;37.664;2023-05-19T07:41:17;100634.66;;;14.67;64.94
35694;BME280;21812;55.536;37.664;2023-05-19T07:43:42;100635.28;;;14.69;65.78
35694;BME280;21812;55.536;37.664;2023-05-19T07:46:08;100638.00;;;14.69;65.00
35694;BME280;21812;55.536;37.664;2023-05-19T07:48:34;100636.97;;;14.70;66.24
35694;BME280;21812;55.536;37.664;2023-05-19T07:51:01;100637.72;;;14.64;64.13
35694;BME280;21812;55.536;37.664;2023-05-19T07:53:26;100631.00;;;14.75;64.39
35694;BME280;21812;55.536;37.664;2023-05-19T07:55:52;100629.47;;;14.94;64.94
35694;BME280;21812;55.536;37.664;2023-05-19T07:58:18;100628.13;;;15.04;63.19
35694;BME280;21812;55.536;37.664;2023-05-19T08:00:44;100628.56;;;15.08;63.52
35694;BME280;21812;55.536;37.664;2023-05-19T08:03:11;100628.13;;;15.04;63.63
35694;BME280;21812;55.536;37.664;2023-05-19T08:05:37;100628.31;;;15.03;63.19
35694;BME280;21812;55.536;37.664;2023-05-19T08:08:03;100630.06;;;15.17;63.34
35694;BME280;21812;55.536;37.664;2023-05-19T08:10:29;100631.97;;;15.23;63.89
35694;BME280;21812;55.536;37.664;2023-05-19T08:12:55;100636.25;;;15.18;63.56
35694;BME280;21812;55.536;37.664;2023-05-19T08:15:20;100635.84;;;15.21;63.04
35694;BME280;21812;55.536;37.664;2023-05-19T08:17:46;100636.78;;;15.35;63.37
35694;BME280;21812;55.536;37.664;2023-05-19T08:20:12;100635.16;;;15.47;63.33
35694;BME280;21812;55.536;37.664;2023-05-19T08:22:38;100631.91;;;15.58;62.44
35694;BME280;21812;55.536;37.664;2023-05-19T08:25:04;100633.16;;;15.62;62.14
35694;BME280;21812;55.536;37.664;2023-05-19T08:27:31;100631.97;;;15.72;63.42
35694;BME280;21812;55.536;37.664;2023-05-19T08:29:57;100640.03;;;15.72;62.88
35694;BME280;21812;55.536;37.664;2023-05-19T08:32:23;100633.88;;;15.78;61.92
35694;BME280;21812;55.536;37.664;2023-05-19T08:34:49;100630.16;;;15.79;62.70
35694;BME280;21812;55.536;37.664;2023-05-19T08:37:15;100626.41;;;15.80;60.25
35694;BME280;21812;55.536;37.664;2023-05-19T08:39:40;100619.66;;;15.97;60.84
35694;BME280;21812;55.536;37.664;2023-05-19T08:42:06;100633.53;;;16.14;58.91
35694;BME280;21812;55.536;37.664;2023-05-19T08:44:36;100601.00;;;16.02;59.14
35694;BME280;21812;55.536;37.664;2023-05-19T08:47:03;100631.72;;;16.15;56.87
35694;BME280;21812;55.536;37.664;2023-05-19T08:49:45;100618.44;;;16.27;55.96
35694;BME280;21812;55.536;37.664;2023-05-19T08:52:34;100629.84;;;16.35;55.64
35694;BME280;21812;55.536;37.664;2023-05-19T08:55:08;100625.28;;;16.42;55.44
35694;BME280;21812;55.536;37.664;2023-05-19T08:57:37;100622.81;;;16.61;54.74
35694;BME280;21812;55.536;37.664;2023-05-19T09:00:04;100620.53;;;16.78;53.59
35694;BME280;21812;55.536;37.664;2023-05-19T09:02:35;100617.44;;;16.88;51.96
35694;BME280;21812;55.536;37.664;2023-05-19T09:05:03;100628.78;;;17.16;54.19
35694;BME280;21812;55.536;37.664;2023-05-19T09:07:30;100615.88;;;17.38;52.89
35694;BME280;21812;55.536;37.664;2023-05-19T09:09:59;100619.34;;;17.52;51.77
35694;BME280;21812;55.536;37.664;2023-05-19T09:12:26;100610.19;;;17.53;51.05
35694;BME280;21812;55.536;37.664;2023-05-19T09:14:52;100610.31;;;17.72;51.56
35694;BME280;21812;55.536;37.664;2023-05-19T09:17:18;100613.41;;;17.75;50.10
35694;BME280;21812;55.536;37.664;2023-05-19T09:19:44;100614.03;;;17.84;50.51
35694;BME280;21812;55.536;37.664;2023-05-19T09:22:14;100611.06;;;17.92;47.90
35694;BME280;21812;55.536;37.664;2023-05-19T09:24:41;100608.47;;;18.11;46.99
35694;BME280;21812;55.536;37.664;2023-05-19T09:27:07;100599.50;;;18.42;46.69
35694;BME280;21812;55.536;37.664;2023-05-19T09:29:32;100602.56;;;18.71;44.66
35694;BME280;21812;55.536;37.664;2023-05-19T09:31:58;100595.94;;;18.92;43.85
35694;BME280;21812;55.536;37.664;2023-05-19T09:34:29;100593.66;;;19.14;44.62
35694;BME280;21812;55.536;37.664;2023-05-19T09:36:55;100585.19;;;19.04;41.80
35694;BME280;21812;55.536;37.664;2023-05-19T09:39:22;100596.41;;;19.07;40.79
35694;BME280;21812;55.536;37.664;2023-05-19T09:41:53;100588.28;;;18.89;41.34
35694;BME280;21812;55.536;37.664;2023-05-19T09:46:52;100587.91;;;19.22;40.66
35694;BME280;21812;55.536;37.664;2023-05-19T09:49:19;100586.13;;;19.34;41.33
35694;BME280;21812;55.536;37.664;2023-05-19T09:51:48;100560.47;;;19.37;40.06
35694;BME280;21812;55.536;37.664;2023-05-19T09:54:14;100575.66;;;19.68;38.83
35694;BME280;21812;55.536;37.664;2023-05-19T09:56:40;100576.03;;;19.90;40.89
35694;BME280;21812;55.536;37.664;2023-05-19T09:59:07;100585.44;;;19.88;37.62
35694;BME280;21812;55.536;37.664;2023-05-19T10:01:32;100586.59;;;19.80;37.73
35694;BME280;21812;55.536;37.664;2023-05-19T10:04:01;100584.94;;;19.79;37.28
35694;BME280;21812;55.536;37.664;2023-05-19T10:06:29;100588.34;;;20.05;36.64
35694;BME280;21812;55.536;37.664;2023-05-19T10:08:55;100574.91;;;20.22;36.62
35694;BME280;21812;55.536;37.664;2023-05-19T10:11:22;100585.69;;;20.40;35.54
35694;BME280;21812;55.536;37.664;2023-05-19T10:13:50;100577.31;;;20.54;35.96
35694;BME280;21812;55.536;37.664;2023-05-19T10:16:16;100576.94;;;20.50;35.99
35694;BME280;21812;55.536;37.664;2023-05-19T10:18:42;100586.06;;;20.67;36.09
35694;BME280;21812;55.536;37.664;2023-05-19T10:21:08;100579.59;;;20.68;34.47
35694;BME280;21812;55.536;37.664;2023-05-19T10:23:35;100575.34;;;20.61;36.11
35694;BME280;21812;55.536;37.664;2023-05-19T10:26:02;100568.38;;;20.77;36.38
35694;BME280;21812;55.536;37.664;2023-05-19T10:28:35;100567.66;;;20.93;35.63
35694;BME280;21812;55.536;37.664;2023-05-19T10:31:05;100568.13;;;20.90;34.40
35694;BME280;21812;55.536;37.664;2023-05-19T10:38:57;100578.41;;;20.88;34.71
35694;BME280;21812;55.536;37.664;2023-05-19T10:44:27;100575.22;;;20.79;33.46
35694;BME280;21812;55.536;37.664;2023-05-19T10:46:54;100565.66;;;20.65;33.68
35694;BME280;21812;55.536;37.664;2023-05-19T10:49:21;100567.56;;;20.64;34.29
35694;BME280;21812;55.536;37.664;2023-05-19T10:51:54;100569.91;;;20.73;34.49
35694;BME280;21812;55.536;37.664;2023-05-19T10:54:53;100560.31;;;21.17;34.48
35694;BME280;21812;55.536;37.664;2023-05-19T10:57:24;100551.50;;;20.98;34.20
35694;BME280;21812;55.536;37.664;2023-05-19T10:59:54;100538.34;;;21.07;35.26
35694;BME280;21812;55.536;37.664;2023-05-19T11:02:40;100573.97;;;21.22;34.38
35694;BME280;21812;55.536;37.664;2023-05-19T11:05:15;100560.69;;;20.97;33.44
35694;BME280;21812;55.536;37.664;2023-05-19T11:07:43;100561.28;;;20.99;33.07
35694;BME280;21812;55.536;37.664;2023-05-19T11:10:22;100551.34;;;21.05;33.42
35694;BME280;21812;55.536;37.664;2023-05-19T11:12:49;100555.72;;;21.06;34.17
35694;BME280;21812;55.536;37.664;2023-05-19T11:15:15;100557.00;;;21.15;33.90
35694;BME280;21812;55.536;37.664;2023-05-19T11:17:43;100555.22;;;21.09;33.38
35694;BME280;21812;55.536;37.664;2023-05-19T11:25:49;100563.88;;;20.94;32.71
35694;BME280;21812;55.536;37.664;2023-05-19T11:28:18;100553.97;;;20.88;32.74
35694;BME280;21812;55.536;37.664;2023-05-19T11:30:46;100556.66;;;21.12;32.69
35694;BME280;21812;55.536;37.664;2023-05-19T11:33:14;100556.16;;;21.15;32.11
35694;BME280;21812;55.536;37.664;2023-05-19T11:35:45;100552.06;;;21.12;33.05
35694;BME280;21812;55.536;37.664;2023-05-19T11:38:13;100513.69;;;21.08;32.26
35694;BME280;21812;55.536;37.664;2023-05-19T11:40:40;100573.00;;;21.40;31.85
35694;BME280;21812;55.536;37.664;2023-05-19T11:43:07;100564.97;;;21.34;31.53
35694;BME280;21812;55.536;37.664;2023-05-19T11:45:33;100562.75;;;21.19;32.08
35694;BME280;21812;55.536;37.664;2023-05-19T11:47:59;100559.63;;;20.98;32.41
35694;BME280;21812;55.536;37.664;2023-05-19T11:50:25;100565.91;;;20.87;32.13
35694;BME280;21812;55.536;37.664;2023-05-19T11:52:52;100564.03;;;20.76;32.16
35694;BME280;21812;55.536;37.664;2023-05-19T11:55:19;100562.97;;;20.65;31.89
35694;BME280;21812;55.536;37.664;2023-05-19T12:00:21;100560.53;;;20.33;32.30
35694;BME280;21812;55.536;37.664;2023-05-19T12:02:47;100556.19;;;20.32;33.30
35694;BME280;21812;55.536;37.664;2023-05-19T12:05:25;100566.44;;;20.30;32.95
35694;BME280;21812;55.536;37.664;2023-05-19T12:07:52;100560.75;;;20.20;32.81
35694;BME280;21812;55.536;37.664;2023-05-19T12:10:28;100564.22;;;20.39;33.05
35694;BME280;21812;55.536;37.664;2023-05-19T12:12:55;100567.50;;;20.41;32.67
35694;BME280;21812;55.536;37.664;2023-05-19T12:15:22;100557.41;;;20.60;32.89
35694;BME280;21812;55.536;37.664;2023-05-19T12:17:58;100565.31;;;20.97;33.33
35694;BME280;21812;55.536;37.664;2023-05-19T12:20:25;100560.31;;;21.05;32.92
35694;BME280;21812;55.536;37.664;2023-05-19T12:22:53;100568.72;;;20.92;32.41
35694;BME280;21812;55.536;37.664;2023-05-19T12:25:19;100568.72;;;20.92;32.57
35694;BME280;21812;55.536;37.664;2023-05-19T12:27:46;100554.88;;;21.05;32.15
35694;BME280;21812;55.536;37.664;2023-05-19T12:30:15;100535.22;;;20.98;32.39
35694;BME280;21812;55.536;37.664;2023-05-19T12:32:41;100559.56;;;21.22;31.55
35694;BME280;21812;55.536;37.664;2023-05-19T12:35:08;100562.53;;;21.20;31.90
35694;BME280;21812;55.536;37.664;2023-05-19T12:37:35;100554.41;;;21.08;31.53
35694;BME280;21812;55.536;37.664;2023-05-19T12:40:02;100568.09;;;21.14;31.55
35694;BME280;21812;55.536;37.664;2023-05-19T12:42:31;100555.47;;;21.07;31.33
35694;BME280;21812;55.536;37.664;2023-05-19T12:44:59;100562.94;;;21.00;32.17
35694;BME280;21812;55.536;37.664;2023-05-19T12:47:29;100545.97;;;20.81;33.16
35694;BME280;21812;55.536;37.664;2023-05-19T12:50:07;100550.78;;;20.91;32.85
35694;BME280;21812;55.536;37.664;2023-05-19T12:52:41;100570.25;;;21.12;32.26
35694;BME280;21812;55.536;37.664;2023-05-19T12:55:07;100559.00;;;21.20;32.71
35694;BME280;21812;55.536;37.664;2023-05-19T12:57:36;100571.13;;;21.29;31.09
35694;BME280;21812;55.536;37.664;2023-05-19T13:00:19;100565.91;;;21.39;31.89
35694;BME280;21812;55.536;37.664;2023-05-19T13:03:05;100541.09;;;21.47;31.64
35694;BME280;21812;55.536;37.664;2023-05-19T13:05:34;100568.03;;;21.49;31.05
35694;BME280;21812;55.536;37.664;2023-05-19T13:08:05;100561.91;;;21.42;29.58
35694;BME280;21812;55.536;37.664;2023-05-19T13:10:32;100573.56;;;21.42;30.05
35694;BME280;21812;55.536;37.664;2023-05-19T13:12:59;100562.59;;;21.37;30.02
35694;BME280;21812;55.536;37.664;2023-05-19T13:15:27;100538.38;;;21.36;30.29
35694;BME280;21812;55.536;37.664;2023-05-19T13:17:54;100549.44;;;21.58;30.34
35694;BME280;21812;55.536;37.664;2023-05-19T13:20:20;100555.22;;;21.61;30.37
35694;BME280;21812;55.536;37.664;2023-05-19T13:22:47;100567.69;;;21.45;29.50